Okolona, Mississippi
Current Conditions -  °F | °C
As of 3:35 PM on Friday 31 Oct 2014 (Local Time) from KM40 Reporting Station
Scattered Clouds Scattered Clouds  
Wind Chill: 64°   Ceiling: Unl
Heat Index: 64°   Visibility: 8mi
Dew Point: 48°   Wind: 16mph
Humidity: 56%   Direction: 340°NNW
Pressure: 30.04"   Gusts: 25mph
Location:  34°N, 88.76°W
Report Text: KM40 312035Z AUTO 34014G22KT 8SM SCT034 SCT065 18/09 A3004 RMK AO2
Loading
Personal Weather Stations






























Interactive Weather Map
Tropical Storm Tracking
New forecast layout! Learn more

10-Day Weather Forecast

Advertisements
Track Severe Weather on mobile